createdAt,value
2023-03-03T00:01:07.316Z,14.40
2023-03-03T00:03:34.504Z,16.67
2023-03-03T00:06:05.013Z,15.02
2023-03-03T00:08:32.896Z,19.52
2023-03-03T00:11:01.247Z,20.20
2023-03-03T00:13:29.034Z,19.50
2023-03-03T00:16:24.406Z,18.33
2023-03-03T00:18:52.536Z,15.75
2023-03-03T00:21:43.902Z,18.85
2023-03-03T00:24:21.932Z,16.58
2023-03-03T00:26:57.679Z,11.70
2023-03-03T00:29:40.986Z,15.85
2023-03-03T00:32:17.224Z,19.50
2023-03-03T00:34:45.260Z,18.48
2023-03-03T00:37:35.930Z,16.80
2023-03-03T00:40:24.936Z,16.33
2023-03-03T00:43:00.137Z,16.52
2023-03-03T00:45:31.985Z,15.68
2023-03-03T00:48:08.106Z,17.83
2023-03-03T00:50:36.124Z,14.85
2023-03-03T00:53:06.642Z,15.93
2023-03-03T00:55:35.486Z,18.48
2023-03-03T00:58:03.418Z,22.08
2023-03-03T01:00:36.810Z,21.15
2023-03-03T01:03:14.801Z,18.27
2023-03-03T01:05:42.733Z,21.33
2023-03-03T01:08:10.108Z,19.42
2023-03-03T01:10:42.550Z,19.70
2023-03-03T01:15:39.518Z,16.45
2023-03-03T01:18:08.010Z,19.25
2023-03-03T01:20:35.249Z,18.65
2023-03-03T01:23:02.555Z,18.95
2023-03-03T01:25:29.855Z,18.90
2023-03-03T01:27:57.980Z,20.48
2023-03-03T01:30:25.527Z,22.85
2023-03-03T01:32:53.245Z,20.33
2023-03-03T01:35:21.432Z,18.70
2023-03-03T01:37:48.693Z,19.90
2023-03-03T01:40:21.646Z,22.52
2023-03-03T01:42:49.435Z,23.13
2023-03-03T01:45:26.238Z,22.42
2023-03-03T01:48:07.260Z,21.15
2023-03-03T01:50:46.065Z,17.98
2023-03-03T01:53:28.670Z,22.77
2023-03-03T01:55:56.224Z,20.90
2023-03-03T01:58:36.558Z,16.85
2023-03-03T02:01:09.645Z,16.02
2023-03-03T02:03:36.790Z,14.15
2023-03-03T02:06:07.936Z,16.70
2023-03-03T02:09:04.805Z,14.70
2023-03-03T02:11:35.327Z,13.68
2023-03-03T02:14:02.738Z,13.77
2023-03-03T02:16:30.425Z,15.45
2023-03-03T02:18:57.745Z,18.02
2023-03-03T02:21:29.104Z,11.55
2023-03-03T02:24:05.293Z,14.52
2023-03-03T02:26:40.856Z,13.02
2023-03-03T02:29:11.423Z,12.68
2023-03-03T02:31:40.960Z,18.88
2023-03-03T02:34:08.241Z,16.85
2023-03-03T02:36:38.260Z,13.77
2023-03-03T02:39:08.954Z,11.20
2023-03-03T02:41:57.592Z,14.68
2023-03-03T02:44:32.953Z,20.45
2023-03-03T02:47:01.007Z,21.08
2023-03-03T02:49:32.533Z,22.17
2023-03-03T02:52:01.228Z,19.83
2023-03-03T02:54:33.311Z,20.65
2023-03-03T02:57:03.734Z,19.38
2023-03-03T02:59:31.340Z,16.85
2023-03-03T03:02:07.775Z,20.55
2023-03-03T03:04:35.405Z,17.65
2023-03-03T03:07:03.812Z,14.23
2023-03-03T03:09:33.234Z,20.65
2023-03-03T03:12:02.789Z,15.20
2023-03-03T03:14:33.316Z,16.88
2023-03-03T03:17:00.674Z,13.05
2023-03-03T03:19:29.512Z,12.73
2023-03-03T03:22:00.255Z,19.27
2023-03-03T03:24:28.460Z,20.23
2023-03-03T03:27:00.985Z,20.27
2023-03-03T03:29:28.716Z,16.38
2023-03-03T03:31:56.305Z,16.50
2023-03-03T03:34:23.412Z,20.20
2023-03-03T03:36:52.606Z,19.33
2023-03-03T03:39:22.301Z,18.00
2023-03-03T03:41:51.511Z,18.63
2023-03-03T03:44:18.678Z,16.20
2023-03-03T03:46:45.869Z,19.23
2023-03-03T03:49:13.110Z,15.63
2023-03-03T03:51:42.255Z,17.05
2023-03-03T03:56:41.302Z,17.23
2023-03-03T03:59:09.412Z,14.88
2023-03-03T04:01:38.490Z,17.15
2023-03-03T04:04:05.912Z,15.75
2023-03-03T04:06:34.656Z,14.43
2023-03-03T04:09:02.184Z,15.93
2023-03-03T04:11:30.676Z,13.50
2023-03-03T04:13:57.999Z,13.90
2023-03-03T04:16:25.880Z,13.52
2023-03-03T04:18:53.130Z,16.40
2023-03-03T04:21:21.790Z,14.10
2023-03-03T04:23:51.457Z,15.15
2023-03-03T04:26:19.412Z,14.40
2023-03-03T04:28:47.718Z,13.05
2023-03-03T04:31:15.120Z,16.98
2023-03-03T04:33:42.316Z,13.95
2023-03-03T04:36:09.524Z,18.02
2023-03-03T04:38:38.220Z,17.33
2023-03-03T04:41:05.924Z,16.95
2023-03-03T04:43:37.043Z,18.35
2023-03-03T04:46:06.009Z,19.17
2023-03-03T04:48:33.856Z,18.02
2023-03-03T04:51:01.125Z,15.10
2023-03-03T04:53:28.486Z,17.73
2023-03-03T04:55:55.766Z,13.95
2023-03-03T04:58:23.648Z,18.83
2023-03-03T05:00:57.145Z,14.40
2023-03-03T05:03:27.189Z,15.82
2023-03-03T05:05:54.726Z,16.58
2023-03-03T05:08:22.013Z,18.38
2023-03-03T05:10:53.348Z,15.48
2023-03-03T05:13:20.785Z,11.93
2023-03-03T05:15:53.233Z,11.55
2023-03-03T05:18:20.875Z,11.68
2023-03-03T05:20:48.918Z,11.70
2023-03-03T05:23:16.610Z,10.75
2023-03-03T05:25:44.254Z,11.60
2023-03-03T05:28:11.807Z,14.48
2023-03-03T05:30:39.099Z,13.32
2023-03-03T05:33:07.431Z,12.90
2023-03-03T05:35:35.225Z,14.02
2023-03-03T05:38:05.395Z,19.35
2023-03-03T05:40:32.784Z,15.98
2023-03-03T05:42:59.969Z,16.15
2023-03-03T05:45:27.217Z,15.57
2023-03-03T05:47:54.794Z,11.45
2023-03-03T05:50:23.609Z,12.88
2023-03-03T05:52:52.201Z,13.32
2023-03-03T05:55:20.460Z,15.35
2023-03-03T05:57:47.686Z,16.05
2023-03-03T06:00:16.987Z,12.23
2023-03-03T06:02:44.439Z,13.10
2023-03-03T06:05:12.178Z,14.85
2023-03-03T06:07:39.829Z,14.50
2023-03-03T06:10:08.003Z,20.27
2023-03-03T06:12:39.336Z,13.40
2023-03-03T06:15:07.594Z,12.50
2023-03-03T06:17:34.879Z,16.88
2023-03-03T06:20:02.317Z,12.00
2023-03-03T06:22:29.574Z,19.55
2023-03-03T06:24:56.740Z,15.07
2023-03-03T06:27:23.983Z,15.10
2023-03-03T06:29:51.065Z,13.98
2023-03-03T06:32:18.719Z,15.25
2023-03-03T06:34:45.856Z,19.15
2023-03-03T06:37:12.958Z,14.77
2023-03-03T06:39:40.110Z,15.88
2023-03-03T06:42:07.435Z,9.38
2023-03-03T06:44:34.576Z,18.88
2023-03-03T06:47:02.179Z,14.52
2023-03-03T06:49:29.384Z,19.60
2023-03-03T06:51:58.673Z,15.52
2023-03-03T06:54:30.928Z,11.43
2023-03-03T06:57:16.728Z,14.60
2023-03-03T06:59:44.067Z,14.77
2023-03-03T07:02:18.250Z,12.10
2023-03-03T07:04:47.458Z,14.75
2023-03-03T07:07:21.697Z,15.20
2023-03-03T07:09:53.428Z,17.08
2023-03-03T07:12:23.384Z,17.30
2023-03-03T07:15:02.230Z,11.02
2023-03-03T07:17:31.482Z,12.60
2023-03-03T07:19:58.500Z,12.65
2023-03-03T07:22:30.662Z,15.40
2023-03-03T07:25:04.863Z,15.00
2023-03-03T07:27:32.036Z,12.15
2023-03-03T07:30:37.903Z,18.33
2023-03-03T07:33:15.591Z,17.25
2023-03-03T07:35:45.243Z,16.42
2023-03-03T07:38:25.881Z,14.80
2023-03-03T07:40:55.548Z,14.80
2023-03-03T07:43:55.327Z,14.20
2023-03-03T07:46:41.831Z,12.77
2023-03-03T07:49:36.881Z,13.80
2023-03-03T07:52:21.541Z,15.30
2023-03-03T07:54:48.685Z,13.18
2023-03-03T07:57:23.271Z,20.08
2023-03-03T07:59:53.756Z,18.90
2023-03-03T08:02:45.987Z,15.68
2023-03-03T08:05:28.794Z,14.55
2023-03-03T08:08:11.478Z,13.95
2023-03-03T08:10:51.495Z,16.58
2023-03-03T08:13:20.210Z,16.92
2023-03-03T08:15:52.508Z,16.58
2023-03-03T08:18:28.571Z,14.98
2023-03-03T08:20:58.242Z,17.38
2023-03-03T08:23:25.525Z,16.30
2023-03-03T08:25:53.382Z,18.50
2023-03-03T08:28:21.910Z,17.20
2023-03-03T08:30:49.969Z,16.05
2023-03-03T08:33:17.911Z,15.60
2023-03-03T08:35:46.257Z,14.75
2023-03-03T08:38:16.167Z,19.90
2023-03-03T08:40:43.817Z,17.67
2023-03-03T08:43:17.268Z,19.00
2023-03-03T08:45:52.433Z,19.98
2023-03-03T08:48:20.923Z,17.88
2023-03-03T08:50:48.177Z,18.55
2023-03-03T08:53:15.980Z,20.40
2023-03-03T08:55:43.565Z,18.35
2023-03-03T08:58:10.824Z,18.58
2023-03-03T09:00:38.680Z,17.27
2023-03-03T09:03:07.634Z,18.58
2023-03-03T09:05:36.892Z,18.50
2023-03-03T09:08:05.021Z,17.95
2023-03-03T09:10:32.493Z,19.52
2023-03-03T09:13:05.727Z,19.23
2023-03-03T09:15:37.898Z,19.85
2023-03-03T09:18:44.384Z,19.35
2023-03-03T09:21:22.916Z,19.45
2023-03-03T09:23:55.304Z,18.25
2023-03-03T09:26:27.120Z,18.50
2023-03-03T09:29:14.111Z,19.35
2023-03-03T09:31:45.595Z,19.08
2023-03-03T09:34:34.479Z,19.77
2023-03-03T09:37:01.912Z,18.20
2023-03-03T09:39:31.752Z,17.90
2023-03-03T09:42:26.727Z,18.23
2023-03-03T09:45:18.278Z,18.75
2023-03-03T09:48:24.178Z,18.33
2023-03-03T09:51:18.932Z,17.38
2023-03-03T09:54:14.169Z,18.58
2023-03-03T09:56:54.877Z,17.90
2023-03-03T09:59:45.351Z,18.13
2023-03-03T10:02:21.660Z,15.18
2023-03-03T10:05:18.562Z,19.27
2023-03-03T10:08:17.942Z,19.92
2023-03-03T10:11:14.164Z,19.60
2023-03-03T10:13:47.447Z,18.13
2023-03-03T10:16:45.595Z,20.10
2023-03-03T10:20:00.970Z,17.60
2023-03-03T10:22:51.060Z,19.65
2023-03-03T10:25:35.597Z,20.85
2023-03-03T10:28:10.407Z,21.25
2023-03-03T10:31:04.856Z,22.35
2023-03-03T10:33:47.339Z,18.75
2023-03-03T10:36:17.774Z,17.83
2023-03-03T10:38:44.985Z,19.67
2023-03-03T10:41:44.465Z,19.90
2023-03-03T10:44:26.736Z,14.40
2023-03-03T10:47:04.197Z,19.02
2023-03-03T10:49:57.096Z,19.48
2023-03-03T10:53:03.378Z,19.63
2023-03-03T10:55:50.504Z,17.33
2023-03-03T10:58:42.899Z,20.13
2023-03-03T11:01:35.572Z,15.90
2023-03-03T11:04:05.793Z,18.20
2023-03-03T11:07:05.956Z,19.40
2023-03-03T11:09:35.638Z,18.58
2023-03-03T11:12:22.666Z,16.98
2023-03-03T11:15:33.876Z,18.10
2023-03-03T11:18:08.831Z,14.65
2023-03-03T11:20:54.581Z,18.67
2023-03-03T11:23:30.741Z,20.42
2023-03-03T11:26:10.462Z,18.63
2023-03-03T11:29:15.536Z,21.45
2023-03-03T11:31:49.681Z,22.65
2023-03-03T11:34:48.170Z,21.65
2023-03-03T11:37:27.042Z,22.10
2023-03-03T11:39:58.070Z,23.10
2023-03-03T11:42:47.718Z,19.35
2023-03-03T11:45:20.377Z,16.98
2023-03-03T11:50:26.620Z,22.77
2023-03-03T11:53:15.178Z,21.02
2023-03-03T11:55:46.224Z,22.40
2023-03-03T11:58:25.278Z,21.88
2023-03-03T12:01:15.609Z,21.65
2023-03-03T12:04:09.607Z,23.80
2023-03-03T12:07:12.958Z,20.83
2023-03-03T12:10:00.298Z,21.23
2023-03-03T12:12:37.251Z,19.40
2023-03-03T12:15:16.050Z,18.65
2023-03-03T12:17:54.955Z,17.48
2023-03-03T12:20:26.347Z,17.08
2023-03-03T12:23:35.048Z,18.55
2023-03-03T12:26:17.536Z,19.15
2023-03-03T12:29:25.396Z,20.48
2023-03-03T12:32:06.537Z,19.83
2023-03-03T12:35:15.728Z,18.98
2023-03-03T12:37:58.642Z,19.23
2023-03-03T12:40:32.627Z,22.48
2023-03-03T12:43:21.399Z,18.35
2023-03-03T12:46:29.941Z,20.95
2023-03-03T12:48:57.201Z,17.98
2023-03-03T12:51:47.213Z,20.95
2023-03-03T12:54:38.686Z,19.38
2023-03-03T12:57:21.710Z,19.98
2023-03-03T13:00:16.876Z,18.55
2023-03-03T13:03:10.180Z,21.38
2023-03-03T13:06:14.810Z,17.70
2023-03-03T13:09:04.310Z,21.38
2023-03-03T13:12:03.708Z,21.27
2023-03-03T13:14:51.351Z,20.48
2023-03-03T13:17:49.402Z,19.90
2023-03-03T13:20:38.744Z,17.95
2023-03-03T13:23:28.196Z,18.08
2023-03-03T13:26:39.917Z,18.75
2023-03-03T13:29:14.512Z,20.42
2023-03-03T13:31:50.007Z,19.75
2023-03-03T13:34:44.334Z,19.02
2023-03-03T13:37:32.470Z,20.60
2023-03-03T13:40:16.027Z,17.85
2023-03-03T13:42:52.671Z,19.05
2023-03-03T13:45:38.459Z,20.45
2023-03-03T13:48:28.026Z,18.98
2023-03-03T13:51:05.296Z,19.00
2023-03-03T13:53:35.254Z,16.98
2023-03-03T13:56:25.475Z,18.88
2023-03-03T13:58:57.991Z,18.88
2023-03-03T14:01:55.768Z,16.88
2023-03-03T14:05:03.679Z,18.73
2023-03-03T14:07:43.870Z,17.27
2023-03-03T14:10:33.969Z,15.77
2023-03-03T14:13:13.472Z,19.23
2023-03-03T14:15:49.491Z,15.07
2023-03-03T14:18:25.607Z,19.42
2023-03-03T14:21:00.185Z,17.17
2023-03-03T14:23:57.734Z,16.70
2023-03-03T14:26:25.441Z,15.18
2023-03-03T14:29:14.300Z,18.67
2023-03-03T14:31:43.834Z,16.55
2023-03-03T14:34:40.451Z,18.05
2023-03-03T14:37:30.353Z,19.75
2023-03-03T14:40:07.872Z,19.80
2023-03-03T14:42:40.953Z,20.00
2023-03-03T14:45:39.933Z,19.23
2023-03-03T14:48:19.875Z,19.60
2023-03-03T14:50:52.291Z,18.90
2023-03-03T14:53:19.475Z,18.40
2023-03-03T14:55:49.577Z,19.65
2023-03-03T14:58:41.232Z,19.58
2023-03-03T15:01:30.367Z,19.80
2023-03-03T15:03:57.566Z,18.58
2023-03-03T15:06:46.509Z,17.85
2023-03-03T15:09:49.077Z,18.13
2023-03-03T15:12:37.119Z,15.93
2023-03-03T15:15:10.128Z,17.30
2023-03-03T15:17:40.721Z,17.23
2023-03-03T15:20:22.397Z,18.35
2023-03-03T15:23:05.666Z,19.02
2023-03-03T15:26:13.102Z,19.90
2023-03-03T15:28:46.102Z,18.10
2023-03-03T15:31:45.812Z,15.38
2023-03-03T15:34:27.081Z,18.42
2023-03-03T15:37:00.207Z,17.50
2023-03-03T15:39:39.620Z,18.85
2023-03-03T15:42:14.913Z,18.85
2023-03-03T15:44:48.292Z,17.77
2023-03-03T15:47:33.249Z,18.02
2023-03-03T15:50:12.261Z,19.42
2023-03-03T15:53:27.721Z,17.05
2023-03-03T15:56:32.514Z,15.10
2023-03-03T15:59:27.283Z,16.20
2023-03-03T16:02:19.454Z,17.75
2023-03-03T16:05:01.593Z,18.27
2023-03-03T16:07:44.278Z,17.85
2023-03-03T16:10:34.966Z,17.67
2023-03-03T16:13:25.288Z,18.00
2023-03-03T16:16:16.709Z,16.65
2023-03-03T16:18:58.696Z,15.15
2023-03-03T16:21:31.639Z,17.50
2023-03-03T16:24:11.019Z,18.88
2023-03-03T16:26:58.478Z,18.02
2023-03-03T16:30:02.778Z,15.02
2023-03-03T16:32:43.022Z,16.50
2023-03-03T16:35:12.851Z,12.85
2023-03-03T16:38:02.505Z,16.77
2023-03-03T16:40:39.074Z,13.95
2023-03-03T16:43:14.922Z,14.30
2023-03-03T16:45:42.397Z,14.95
2023-03-03T16:48:42.200Z,15.88
2023-03-03T16:51:16.584Z,15.07
2023-03-03T16:53:52.182Z,14.75
2023-03-03T16:56:24.766Z,12.77
2023-03-03T17:02:03.505Z,9.70
2023-03-03T17:04:44.024Z,14.70
2023-03-03T17:07:48.166Z,9.82
2023-03-03T17:10:37.989Z,7.90
2023-03-03T17:13:29.577Z,9.15
2023-03-03T17:16:05.878Z,12.13
2023-03-03T17:18:53.032Z,15.13
2023-03-03T17:21:32.752Z,11.68
2023-03-03T17:24:05.685Z,17.15
2023-03-03T17:26:50.654Z,16.40
2023-03-03T17:29:39.576Z,14.50
2023-03-03T17:32:24.945Z,15.15
2023-03-03T17:35:13.145Z,13.52
2023-03-03T17:38:18.835Z,11.75
2023-03-03T17:41:10.428Z,17.27
2023-03-03T17:43:49.757Z,20.35
2023-03-03T17:46:42.882Z,19.23
2023-03-03T17:49:32.256Z,14.25
2023-03-03T17:52:36.948Z,17.30
2023-03-03T17:55:40.691Z,19.20
2023-03-03T17:58:29.660Z,16.77
2023-03-03T18:01:25.769Z,16.20
2023-03-03T18:04:13.080Z,17.77
2023-03-03T18:06:54.493Z,13.80
2023-03-03T18:09:27.249Z,17.23
2023-03-03T18:11:57.140Z,17.10
2023-03-03T18:15:11.542Z,13.80
2023-03-03T18:17:47.862Z,22.23
2023-03-03T18:20:31.355Z,21.17
2023-03-03T18:23:18.519Z,18.33
2023-03-03T18:25:58.649Z,18.70
2023-03-03T18:29:05.952Z,21.33
2023-03-03T18:31:46.941Z,23.08
2023-03-03T18:34:38.340Z,22.20
2023-03-03T18:37:08.413Z,22.73
2023-03-03T18:39:50.455Z,20.63
2023-03-03T18:42:17.566Z,19.55
2023-03-03T18:44:45.472Z,20.83
2023-03-03T18:47:15.480Z,16.20
2023-03-03T18:50:14.695Z,21.98
2023-03-03T18:53:19.986Z,22.40
2023-03-03T18:55:51.768Z,19.13
2023-03-03T18:58:18.880Z,22.27
2023-03-03T19:01:00.902Z,21.27
2023-03-03T19:03:38.502Z,18.60
2023-03-03T19:06:08.826Z,20.38
2023-03-03T19:08:58.438Z,21.05
2023-03-03T19:11:37.814Z,16.27
2023-03-03T19:14:34.605Z,14.95
2023-03-03T19:17:23.581Z,13.68
2023-03-03T19:20:15.415Z,15.02
2023-03-03T19:22:49.519Z,20.50
2023-03-03T19:25:25.339Z,21.75
2023-03-03T19:28:17.920Z,22.00
2023-03-03T19:30:48.079Z,21.77
2023-03-03T19:33:31.156Z,20.77
2023-03-03T19:36:18.937Z,25.20
2023-03-03T19:39:04.066Z,25.13
2023-03-03T19:42:10.267Z,23.98
2023-03-03T19:44:50.057Z,24.38
2023-03-03T19:47:23.026Z,23.55
2023-03-03T19:50:01.032Z,23.98
2023-03-03T19:52:46.954Z,24.17
2023-03-03T19:55:21.948Z,21.35
2023-03-03T19:57:58.222Z,22.40
2023-03-03T20:00:44.056Z,15.60
2023-03-03T20:03:25.998Z,20.70
2023-03-03T20:06:17.040Z,16.80
2023-03-03T20:08:58.090Z,22.45
2023-03-03T20:11:46.454Z,20.77
2023-03-03T20:14:26.527Z,25.63
2023-03-03T20:16:58.341Z,18.70
2023-03-03T20:20:20.177Z,21.92
2023-03-03T20:22:57.260Z,24.95
2023-03-03T20:25:36.816Z,24.58
2023-03-03T20:28:28.628Z,26.17
2023-03-03T20:30:58.794Z,26.10
2023-03-03T20:33:31.881Z,27.23
2023-03-03T20:36:08.043Z,25.88
2023-03-03T20:38:43.321Z,27.00
2023-03-03T20:41:13.146Z,27.35
2023-03-03T20:44:08.067Z,26.55
2023-03-03T20:46:53.089Z,27.60
2023-03-03T20:49:48.105Z,26.15
2023-03-03T20:52:33.338Z,25.70
2023-03-03T20:55:03.110Z,24.23
2023-03-03T20:57:42.922Z,25.80
2023-03-03T21:00:28.972Z,26.65
2023-03-03T21:03:27.448Z,27.40
2023-03-03T21:06:02.548Z,26.98
2023-03-03T21:08:49.140Z,25.67
2023-03-03T21:11:19.761Z,25.48
2023-03-03T21:13:52.141Z,27.65
2023-03-03T21:16:23.019Z,28.63
2023-03-03T21:19:04.341Z,28.27
2023-03-03T21:21:35.842Z,25.48
2023-03-03T21:24:03.500Z,27.23
2023-03-03T21:26:46.140Z,25.83
2023-03-03T21:29:17.801Z,23.58
2023-03-03T21:31:56.910Z,28.75
2023-03-03T21:34:25.496Z,29.17
2023-03-03T21:36:54.516Z,27.55
2023-03-03T21:39:26.176Z,30.40
2023-03-03T21:42:00.504Z,28.30
2023-03-03T21:44:41.798Z,23.52
2023-03-03T21:47:11.695Z,16.85
2023-03-03T21:49:43.082Z,21.15
2023-03-03T21:52:11.007Z,20.23
2023-03-03T21:54:38.296Z,17.77
2023-03-03T21:57:05.569Z,18.70
2023-03-03T21:59:32.752Z,25.02
2023-03-03T22:02:00.038Z,23.40
2023-03-03T22:04:27.350Z,25.40
2023-03-03T22:06:54.875Z,30.60
2023-03-03T22:09:22.196Z,29.48
2023-03-03T22:11:49.746Z,29.20
2023-03-03T22:14:17.023Z,28.08
2023-03-03T22:16:44.141Z,29.25
2023-03-03T22:19:11.421Z,28.98
2023-03-03T22:21:39.744Z,29.23
2023-03-03T22:24:07.796Z,29.73
2023-03-03T22:26:35.454Z,28.83
2023-03-03T22:29:03.066Z,22.38
2023-03-03T22:31:30.219Z,25.67
2023-03-03T22:33:57.792Z,23.85
2023-03-03T22:36:24.935Z,22.33
2023-03-03T22:38:52.157Z,26.50
2023-03-03T22:41:19.324Z,28.17
2023-03-03T22:43:48.306Z,31.10
2023-03-03T22:46:15.576Z,27.33
2023-03-03T22:48:42.731Z,22.45
2023-03-03T22:51:09.795Z,28.63
2023-03-03T22:53:36.923Z,25.90
2023-03-03T22:56:04.232Z,30.40
2023-03-03T22:58:31.457Z,29.15
2023-03-03T23:00:58.647Z,29.52
2023-03-03T23:03:25.968Z,28.48
2023-03-03T23:05:53.358Z,28.83
2023-03-03T23:08:21.001Z,29.50
2023-03-03T23:10:48.605Z,28.30
2023-03-03T23:13:16.718Z,30.02
2023-03-03T23:15:44.251Z,28.40
2023-03-03T23:18:11.526Z,29.25
2023-03-03T23:20:38.694Z,29.15
2023-03-03T23:23:05.913Z,28.95
2023-03-03T23:25:34.784Z,27.92
2023-03-03T23:28:01.949Z,27.77
2023-03-03T23:30:29.090Z,24.63
2023-03-03T23:32:56.212Z,26.40
2023-03-03T23:35:23.542Z,28.02
2023-03-03T23:37:50.856Z,23.58
2023-03-03T23:40:18.413Z,25.73
2023-03-03T23:42:45.617Z,19.65
2023-03-03T23:45:13.414Z,23.02
2023-03-03T23:47:41.168Z,23.35
2023-03-03T23:50:10.115Z,20.75
2023-03-03T23:52:37.662Z,22.45
2023-03-03T23:55:05.809Z,25.17
2023-03-03T23:57:32.998Z,27.33
